createdAt,value
2017-11-11T00:00:22.380Z,3.4
2017-11-11T00:01:25.170Z,3.4
2017-11-11T00:02:27.953Z,3.4
2017-11-11T00:03:30.382Z,3.4
2017-11-11T00:04:33.073Z,3.3
2017-11-11T00:05:35.563Z,3.3
2017-11-11T00:06:37.991Z,3.3
2017-11-11T00:07:40.415Z,3.3
2017-11-11T00:08:42.829Z,3.3
2017-11-11T00:09:45.254Z,3.3
2017-11-11T00:10:47.680Z,3.3
2017-11-11T00:11:50.101Z,3.3
2017-11-11T00:12:52.523Z,3.2
2017-11-11T00:13:54.943Z,3.2
2017-11-11T00:14:57.716Z,3.2
2017-11-11T00:16:00.511Z,3.2
2017-11-11T00:17:03.288Z,3.2
2017-11-11T00:18:05.824Z,3.2
2017-11-11T00:19:08.372Z,3.2
2017-11-11T00:20:10.793Z,3.1
2017-11-11T00:21:13.210Z,3.1
2017-11-11T00:22:15.634Z,3.1
2017-11-11T00:23:18.058Z,3.1
2017-11-11T00:24:20.482Z,3.1
2017-11-11T00:25:22.907Z,3.1
2017-11-11T00:26:25.314Z,3
2017-11-11T00:27:27.736Z,3
2017-11-11T00:28:30.168Z,3
2017-11-11T00:29:32.604Z,3
2017-11-11T00:30:35.028Z,3
2017-11-11T00:31:37.809Z,3
2017-11-11T00:32:40.233Z,2.9
2017-11-11T00:33:42.643Z,3
2017-11-11T00:34:45.067Z,3
2017-11-11T00:35:47.502Z,3
2017-11-11T00:36:49.927Z,3
2017-11-11T00:37:52.350Z,3
2017-11-11T00:38:54.763Z,3
2017-11-11T00:39:57.187Z,3
2017-11-11T00:40:59.624Z,3
2017-11-11T00:42:02.047Z,2.9
2017-11-11T00:43:04.827Z,2.9
2017-11-11T00:44:07.621Z,3
2017-11-11T00:45:10.036Z,2.9
2017-11-11T00:46:12.512Z,2.9
2017-11-11T00:47:14.933Z,2.9
2017-11-11T00:48:17.372Z,2.9
2017-11-11T00:49:19.805Z,2.9
2017-11-11T00:50:22.242Z,2.9
2017-11-11T00:51:24.648Z,2.9
2017-11-11T00:52:27.069Z,2.9
2017-11-11T00:53:29.484Z,2.9
2017-11-11T00:54:32.267Z,2.9
2017-11-11T00:55:34.689Z,2.9
2017-11-11T00:56:37.124Z,2.8
2017-11-11T00:57:39.894Z,2.9
2017-11-11T00:58:42.324Z,2.9
2017-11-11T00:59:44.751Z,2.8
2017-11-11T01:00:47.225Z,2.9
2017-11-11T01:01:49.634Z,2.9
2017-11-11T01:02:52.063Z,2.9
2017-11-11T01:03:54.485Z,2.9
2017-11-11T01:04:56.909Z,2.9
2017-11-11T01:05:59.683Z,2.9
2017-11-11T01:07:02.115Z,2.9
2017-11-11T01:08:04.530Z,2.9
2017-11-11T01:09:06.965Z,2.8
2017-11-11T01:10:09.383Z,2.9
2017-11-11T01:11:11.806Z,2.8
2017-11-11T01:12:14.234Z,2.9
2017-11-11T01:13:16.656Z,2.9
2017-11-11T01:14:19.074Z,2.9
2017-11-11T01:15:21.505Z,2.9
2017-11-11T01:16:23.925Z,2.9
2017-11-11T01:17:26.355Z,2.9
2017-11-11T01:18:28.784Z,2.9
2017-11-11T01:19:31.201Z,2.9
2017-11-11T01:20:33.627Z,2.9
2017-11-11T01:21:36.047Z,3
2017-11-11T01:22:38.470Z,3
2017-11-11T01:23:40.900Z,3
2017-11-11T01:24:43.313Z,3
2017-11-11T01:25:46.109Z,3
2017-11-11T01:26:48.883Z,3.1
2017-11-11T01:27:51.305Z,3.1
2017-11-11T01:28:53.736Z,3.1
2017-11-11T01:29:56.150Z,3.1
2017-11-11T01:30:58.589Z,3.1
2017-11-11T01:32:01.006Z,3.1
2017-11-11T01:33:03.415Z,3.1
2017-11-11T01:34:05.849Z,3.2
2017-11-11T01:35:08.264Z,3.2
2017-11-11T01:36:10.699Z,3.2
2017-11-11T01:37:13.477Z,3.2
2017-11-11T01:38:16.262Z,3.2
2017-11-11T01:39:19.099Z,3.2
2017-11-11T01:40:21.513Z,3.3
2017-11-11T01:41:23.924Z,3.3
2017-11-11T01:42:26.342Z,3.3
2017-11-11T01:43:28.775Z,3.3
2017-11-11T01:44:31.189Z,3.3
2017-11-11T01:45:33.615Z,3.3
2017-11-11T01:46:36.404Z,3.4
2017-11-11T01:47:38.818Z,3.4
2017-11-11T01:48:41.248Z,3.4
2017-11-11T01:49:44.013Z,3.4
2017-11-11T01:50:46.432Z,3.4
2017-11-11T01:51:48.866Z,3.4
2017-11-11T01:52:51.278Z,3.5
2017-11-11T01:53:53.698Z,3.5
2017-11-11T01:54:56.136Z,3.5
2017-11-11T01:55:58.550Z,3.5
2017-11-11T01:57:00.969Z,3.5
2017-11-11T01:58:03.384Z,3.5
2017-11-11T01:59:05.825Z,3.6
2017-11-11T02:00:08.240Z,3.6
2017-11-11T02:01:10.655Z,3.6
2017-11-11T02:02:13.074Z,3.6
2017-11-11T02:03:15.503Z,3.6
2017-11-11T02:04:17.920Z,3.6
2017-11-11T02:05:20.719Z,3.7
2017-11-11T02:06:23.120Z,3.7
2017-11-11T02:07:25.541Z,3.7
2017-11-11T02:08:27.985Z,3.7
2017-11-11T02:09:30.399Z,3.7
2017-11-11T02:10:33.183Z,3.7
2017-11-11T02:11:35.610Z,3.8
2017-11-11T02:12:38.035Z,3.8
2017-11-11T02:13:40.480Z,3.8
2017-11-11T02:14:42.912Z,3.8
2017-11-11T02:15:45.692Z,3.8
2017-11-11T02:16:48.112Z,3.8
2017-11-11T02:17:50.541Z,3.8
2017-11-11T02:18:52.960Z,3.8
2017-11-11T02:19:55.388Z,3.8
2017-11-11T02:20:57.809Z,3.8
2017-11-11T02:22:00.219Z,3.8
2017-11-11T02:23:02.651Z,3.8
2017-11-11T02:24:05.427Z,3.9
2017-11-11T02:25:07.856Z,3.9
2017-11-11T02:26:10.277Z,3.9
2017-11-11T02:27:12.716Z,3.9
2017-11-11T02:28:15.151Z,3.9
2017-11-11T02:29:17.705Z,3.9
2017-11-11T02:30:20.220Z,3.9
2017-11-11T02:31:23.010Z,3.9
2017-11-11T02:32:25.835Z,3.9
2017-11-11T02:33:28.685Z,3.9
2017-11-11T02:34:31.119Z,3.9
2017-11-11T02:35:33.569Z,3.9
2017-11-11T02:36:36.053Z,3.9
2017-11-11T02:37:38.526Z,3.8
2017-11-11T02:38:40.982Z,3.8
2017-11-11T02:39:43.436Z,3.8
2017-11-11T02:40:46.263Z,3.8
2017-11-11T02:41:48.751Z,3.8
2017-11-11T02:42:51.209Z,3.8
2017-11-11T02:43:53.688Z,3.8
2017-11-11T02:44:56.137Z,3.8
2017-11-11T02:45:58.566Z,3.8
2017-11-11T02:47:01.111Z,3.8
2017-11-11T02:48:04.343Z,3.7
2017-11-11T02:49:06.826Z,3.7
2017-11-11T02:50:09.346Z,3.7
2017-11-11T02:51:12.132Z,3.7
2017-11-11T02:52:14.949Z,3.7
2017-11-11T02:53:17.801Z,3.7
2017-11-11T02:54:20.615Z,3.7
2017-11-11T02:55:23.413Z,3.7
2017-11-11T02:56:25.844Z,3.7
2017-11-11T02:57:28.346Z,3.7
2017-11-11T02:58:30.757Z,3.7
2017-11-11T02:59:33.215Z,3.7
2017-11-11T03:00:36.093Z,3.7
2017-11-11T03:01:38.893Z,3.7
2017-11-11T03:02:41.326Z,3.6
2017-11-11T03:03:44.148Z,3.6
2017-11-11T03:04:46.562Z,3.6
2017-11-11T03:05:49.042Z,3.6
2017-11-11T03:06:51.494Z,3.6
2017-11-11T03:07:53.926Z,3.6
2017-11-11T03:08:56.393Z,3.7
2017-11-11T03:09:58.941Z,3.6
2017-11-11T03:11:01.477Z,3.7
2017-11-11T03:12:03.978Z,3.6
2017-11-11T03:13:06.386Z,3.6
2017-11-11T03:14:08.848Z,3.6
2017-11-11T03:15:11.293Z,3.6
2017-11-11T03:16:14.109Z,3.6
2017-11-11T03:17:16.597Z,3.7
2017-11-11T03:18:19.082Z,3.7
2017-11-11T03:19:21.514Z,3.7
2017-11-11T03:20:23.948Z,3.7
2017-11-11T03:21:26.462Z,3.7
2017-11-11T03:22:28.900Z,3.7
2017-11-11T03:23:31.321Z,3.7
2017-11-11T03:24:33.755Z,3.7
2017-11-11T03:25:36.239Z,3.7
2017-11-11T03:26:38.671Z,3.8
2017-11-11T03:27:41.125Z,3.8
2017-11-11T03:28:43.565Z,3.8
2017-11-11T03:29:45.985Z,3.8
2017-11-11T03:30:48.517Z,3.8
2017-11-11T03:31:51.031Z,3.8
2017-11-11T03:32:53.486Z,3.8
2017-11-11T03:33:55.903Z,3.8
2017-11-11T03:34:58.383Z,3.8
2017-11-11T03:36:00.814Z,3.8
2017-11-11T03:37:03.246Z,3.8
2017-11-11T03:38:06.029Z,3.8
2017-11-11T03:39:08.448Z,3.8
2017-11-11T03:40:10.872Z,3.8
2017-11-11T03:41:13.299Z,3.8
2017-11-11T03:42:15.720Z,3.8
2017-11-11T03:43:18.142Z,3.8
2017-11-11T03:44:20.543Z,3.8
2017-11-11T03:45:22.975Z,3.8
2017-11-11T03:46:25.399Z,3.8
2017-11-11T03:47:27.814Z,3.8
2017-11-11T03:48:30.240Z,3.8
2017-11-11T03:49:32.658Z,3.8
2017-11-11T03:50:35.467Z,3.8
2017-11-11T03:51:37.888Z,3.8
2017-11-11T03:52:40.299Z,3.8
2017-11-11T03:53:42.732Z,3.8
2017-11-11T03:54:45.153Z,3.8
2017-11-11T03:55:47.577Z,3.8
2017-11-11T03:56:50.002Z,3.8
2017-11-11T03:57:52.421Z,3.8
2017-11-11T03:58:54.844Z,3.8
2017-11-11T03:59:57.261Z,3.8
2017-11-11T04:00:59.684Z,3.9
2017-11-11T04:02:02.104Z,3.9
2017-11-11T04:03:04.874Z,3.9
2017-11-11T04:04:07.288Z,3.9
2017-11-11T04:05:09.712Z,3.9
2017-11-11T04:06:12.135Z,3.9
2017-11-11T04:07:14.554Z,3.9
2017-11-11T04:08:17.337Z,3.9
2017-11-11T04:09:20.153Z,3.9
2017-11-11T04:10:22.571Z,3.9
2017-11-11T04:11:25.344Z,3.9
2017-11-11T04:12:27.766Z,3.9
2017-11-11T04:13:30.187Z,3.9
2017-11-11T04:14:32.967Z,3.9
2017-11-11T04:15:35.388Z,3.9
2017-11-11T04:16:37.813Z,4
2017-11-11T04:17:40.236Z,3.9
2017-11-11T04:18:43.008Z,4
2017-11-11T04:19:45.441Z,4
2017-11-11T04:20:47.869Z,4
2017-11-11T04:21:50.635Z,4
2017-11-11T04:22:53.413Z,4
2017-11-11T04:23:55.831Z,4
2017-11-11T04:24:58.252Z,4
2017-11-11T04:26:00.672Z,4
2017-11-11T04:27:03.099Z,4
2017-11-11T04:28:05.528Z,4
2017-11-11T04:29:07.936Z,4
2017-11-11T04:30:10.750Z,4
2017-11-11T04:31:13.170Z,4
2017-11-11T04:32:15.948Z,4
2017-11-11T04:33:18.362Z,4
2017-11-11T04:34:21.160Z,4
2017-11-11T04:35:23.572Z,4
2017-11-11T04:36:25.999Z,3.9
2017-11-11T04:37:28.419Z,4
2017-11-11T04:38:30.829Z,3.9
2017-11-11T04:39:33.256Z,4
2017-11-11T04:40:35.700Z,4
2017-11-11T04:41:38.121Z,3.9
2017-11-11T04:42:40.544Z,3.9
2017-11-11T04:43:42.957Z,3.9
2017-11-11T04:44:45.377Z,3.9
2017-11-11T04:45:47.805Z,3.9
2017-11-11T04:46:50.231Z,3.9
2017-11-11T04:47:52.647Z,3.9
2017-11-11T04:48:55.084Z,3.8
2017-11-11T04:49:57.524Z,3.8
2017-11-11T04:50:59.967Z,3.8
2017-11-11T04:52:02.385Z,3.8
2017-11-11T04:53:04.792Z,3.8
2017-11-11T04:54:07.213Z,3.8
2017-11-11T04:55:09.631Z,3.8
2017-11-11T04:56:12.054Z,3.7
2017-11-11T04:57:14.477Z,3.8
2017-11-11T04:58:16.895Z,3.8
2017-11-11T04:59:19.322Z,3.8
2017-11-11T05:00:21.732Z,3.7
2017-11-11T05:01:24.507Z,3.7
2017-11-11T05:02:26.943Z,3.7
2017-11-11T05:03:29.356Z,3.7
2017-11-11T05:04:32.496Z,3.7
2017-11-11T05:05:35.260Z,3.7
2017-11-11T05:06:37.684Z,3.6
2017-11-11T05:07:40.111Z,3.6
2017-11-11T05:08:42.528Z,3.7
2017-11-11T05:09:44.940Z,3.7
2017-11-11T05:10:47.374Z,3.6
2017-11-11T05:11:49.782Z,3.6
2017-11-11T05:12:52.208Z,3.6
2017-11-11T05:13:54.636Z,3.6
2017-11-11T05:14:57.055Z,3.5
2017-11-11T05:15:59.479Z,3.6
2017-11-11T05:17:01.907Z,3.6
2017-11-11T05:18:04.325Z,3.6
2017-11-11T05:19:06.751Z,3.6
2017-11-11T05:20:09.165Z,3.6
2017-11-11T05:21:11.586Z,3.6
2017-11-11T05:22:14.002Z,3.6
2017-11-11T05:23:16.423Z,3.6
2017-11-11T05:24:18.823Z,3.7
2017-11-11T05:25:21.253Z,3.7
2017-11-11T05:26:23.711Z,3.7
2017-11-11T05:27:26.119Z,3.7
2017-11-11T05:28:28.536Z,3.7
2017-11-11T05:29:30.955Z,3.7
2017-11-11T05:30:33.381Z,3.7
2017-11-11T05:31:36.536Z,3.7
2017-11-11T05:32:39.018Z,3.8
2017-11-11T05:33:41.436Z,3.8
2017-11-11T05:34:43.859Z,3.8
2017-11-11T05:35:46.290Z,3.8
2017-11-11T05:36:48.711Z,3.8
2017-11-11T05:37:51.133Z,3.8
2017-11-11T05:38:53.546Z,3.8
2017-11-11T05:39:55.960Z,3.8
2017-11-11T05:40:58.390Z,3.9
2017-11-11T05:42:00.811Z,3.9
2017-11-11T05:43:03.228Z,3.9
2017-11-11T05:44:05.651Z,3.9
2017-11-11T05:45:08.078Z,3.9
2017-11-11T05:46:10.499Z,3.9
2017-11-11T05:47:12.927Z,4
2017-11-11T05:48:15.343Z,4
2017-11-11T05:49:17.764Z,4
2017-11-11T05:50:20.200Z,4
2017-11-11T05:51:22.616Z,4
2017-11-11T05:52:25.032Z,4
2017-11-11T05:53:27.451Z,4
2017-11-11T05:54:29.871Z,4
2017-11-11T05:55:32.653Z,4
2017-11-11T05:56:35.062Z,4
2017-11-11T05:57:37.484Z,4
2017-11-11T05:58:39.908Z,4
2017-11-11T05:59:42.671Z,4
2017-11-11T06:00:45.467Z,4
2017-11-11T06:01:48.242Z,4
2017-11-11T06:02:50.668Z,4.1
2017-11-11T06:03:53.097Z,4
2017-11-11T06:04:55.517Z,4
2017-11-11T06:05:57.941Z,4
2017-11-11T06:07:00.368Z,4
2017-11-11T06:08:02.780Z,4
2017-11-11T06:09:05.199Z,4
2017-11-11T06:10:07.623Z,4.1
2017-11-11T06:11:10.039Z,4.1
2017-11-11T06:12:12.460Z,4
2017-11-11T06:13:15.273Z,4
2017-11-11T06:14:17.685Z,4
2017-11-11T06:15:20.114Z,4
2017-11-11T06:16:22.525Z,4
2017-11-11T06:17:24.955Z,4
2017-11-11T06:18:27.729Z,4
2017-11-11T06:19:30.155Z,4
2017-11-11T06:20:32.582Z,4
2017-11-11T06:21:35.431Z,4
2017-11-11T06:22:37.848Z,4
2017-11-11T06:23:40.265Z,4
2017-11-11T06:24:42.686Z,4
2017-11-11T06:25:45.094Z,4
2017-11-11T06:26:47.517Z,4
2017-11-11T06:27:50.302Z,4
2017-11-11T06:28:53.073Z,4
2017-11-11T06:29:55.501Z,4
2017-11-11T06:30:57.930Z,4
2017-11-11T06:32:00.354Z,4
2017-11-11T06:33:02.787Z,4
2017-11-11T06:34:05.212Z,4
2017-11-11T06:35:07.636Z,4
2017-11-11T06:36:10.054Z,4
2017-11-11T06:37:12.474Z,3.9
2017-11-11T06:38:14.904Z,4
2017-11-11T06:39:17.327Z,3.9
2017-11-11T06:40:19.729Z,4
2017-11-11T06:41:22.158Z,3.9
2017-11-11T06:42:24.578Z,3.9
2017-11-11T06:43:26.999Z,4
2017-11-11T06:44:29.419Z,4
2017-11-11T06:45:31.837Z,4
2017-11-11T06:46:34.245Z,4
2017-11-11T06:47:36.677Z,3.9
2017-11-11T06:48:39.093Z,3.9
2017-11-11T06:49:41.517Z,3.9
2017-11-11T06:50:44.297Z,3.9
2017-11-11T06:51:46.722Z,3.9
2017-11-11T06:52:49.143Z,3.9
2017-11-11T06:53:51.563Z,3.9
2017-11-11T06:54:54.350Z,4
2017-11-11T06:55:56.772Z,4
2017-11-11T06:56:59.185Z,4.1
2017-11-11T06:58:01.612Z,4
2017-11-11T06:59:04.042Z,4
2017-11-11T07:00:06.463Z,4
2017-11-11T07:01:08.884Z,4
2017-11-11T07:02:11.662Z,4.1
2017-11-11T07:03:14.082Z,4.1
2017-11-11T07:04:16.506Z,4
2017-11-11T07:05:18.928Z,4
2017-11-11T07:06:21.330Z,4
2017-11-11T07:07:23.758Z,4
2017-11-11T07:08:26.184Z,4
2017-11-11T07:09:28.599Z,4
2017-11-11T07:10:31.025Z,4.1
2017-11-11T07:11:33.437Z,4.1
2017-11-11T07:12:35.864Z,4.1
2017-11-11T07:13:38.652Z,4.1
2017-11-11T07:14:41.072Z,4.1
2017-11-11T07:15:43.493Z,4.1
2017-11-11T07:16:45.982Z,4.1
2017-11-11T07:17:48.413Z,4.2
2017-11-11T07:18:51.194Z,4.2
2017-11-11T07:19:53.621Z,4.1
2017-11-11T07:20:56.033Z,4.1
2017-11-11T07:21:58.451Z,4.1
2017-11-11T07:23:00.883Z,4.1
2017-11-11T07:24:03.298Z,4.1
2017-11-11T07:25:05.711Z,4.1
2017-11-11T07:26:08.139Z,4.1
2017-11-11T07:27:10.566Z,4.1
2017-11-11T07:28:12.987Z,4.1
2017-11-11T07:29:15.412Z,4.1
2017-11-11T07:30:17.824Z,4.1
2017-11-11T07:31:20.241Z,4.1
2017-11-11T07:32:22.682Z,4.2
2017-11-11T07:33:25.099Z,4.2
2017-11-11T07:34:27.514Z,4.2
2017-11-11T07:35:29.929Z,4.2
2017-11-11T07:36:32.361Z,4.2
2017-11-11T07:37:34.781Z,4.2
2017-11-11T07:38:37.212Z,4.2
2017-11-11T07:39:39.622Z,4.2
2017-11-11T07:40:42.044Z,4.2
2017-11-11T07:41:44.464Z,4.2
2017-11-11T07:42:46.886Z,4.2
2017-11-11T07:43:50.092Z,4.2
2017-11-11T07:44:52.515Z,4.2
2017-11-11T07:45:55.293Z,4.2
2017-11-11T07:46:57.728Z,4.2
2017-11-11T07:48:00.146Z,4.2
2017-11-11T07:49:02.562Z,4.2
2017-11-11T07:50:04.978Z,4.3
2017-11-11T07:51:07.406Z,4.3
2017-11-11T07:52:09.824Z,4.3
2017-11-11T07:53:12.245Z,4.3
2017-11-11T07:54:14.670Z,4.3
2017-11-11T07:55:17.097Z,4.3
2017-11-11T07:56:19.508Z,4.3
2017-11-11T07:57:21.930Z,4.3
2017-11-11T07:58:24.356Z,4.3
2017-11-11T07:59:26.770Z,4.3
2017-11-11T08:00:29.187Z,4.3
2017-11-11T08:01:31.611Z,4.3
2017-11-11T08:02:34.029Z,4.3
2017-11-11T08:03:36.469Z,4.3
2017-11-11T08:04:38.879Z,4.3
2017-11-11T08:05:41.305Z,4.3
2017-11-11T08:06:43.719Z,4.3
2017-11-11T08:07:46.150Z,4.3
2017-11-11T08:08:48.578Z,4.3
2017-11-11T08:09:51.369Z,4.3
2017-11-11T08:10:53.776Z,4.3
2017-11-11T08:11:56.561Z,4.3
2017-11-11T08:12:58.989Z,4.3
2017-11-11T08:14:01.410Z,4.3
2017-11-11T08:15:04.212Z,4.3
2017-11-11T08:16:06.647Z,4.2
2017-11-11T08:17:09.085Z,4.2
2017-11-11T08:18:11.873Z,4.2
2017-11-11T08:19:14.284Z,4.1
2017-11-11T08:20:17.064Z,4.1
2017-11-11T08:21:19.836Z,4.1
2017-11-11T08:22:22.259Z,4.1
2017-11-11T08:23:24.686Z,4.1
2017-11-11T08:24:27.112Z,4.1
2017-11-11T08:25:29.906Z,4.1
2017-11-11T08:26:32.333Z,4.1
2017-11-11T08:27:35.107Z,4.1
2017-11-11T08:28:37.533Z,4.1
2017-11-11T08:29:39.950Z,4.2
2017-11-11T08:30:42.737Z,4.2
2017-11-11T08:31:45.157Z,4.2
2017-11-11T08:32:47.582Z,4.2
2017-11-11T08:33:49.998Z,4.2
2017-11-11T08:34:52.786Z,4.2
2017-11-11T08:35:55.254Z,4.2
2017-11-11T08:36:57.625Z,4.2
2017-11-11T08:38:00.061Z,4.2
2017-11-11T08:39:02.461Z,4.2
2017-11-11T08:40:04.888Z,4.2
2017-11-11T08:41:07.314Z,4.2
2017-11-11T08:42:09.744Z,4.3
2017-11-11T08:43:12.163Z,4.3
2017-11-11T08:44:14.584Z,4.3
2017-11-11T08:45:17.371Z,4.4
2017-11-11T08:46:19.805Z,4.4
2017-11-11T08:47:22.220Z,4.4
2017-11-11T08:48:24.629Z,4.5
2017-11-11T08:49:27.410Z,4.4
2017-11-11T08:50:29.846Z,4.5
2017-11-11T08:51:32.261Z,4.5
2017-11-11T08:52:34.692Z,4.5
2017-11-11T08:53:37.479Z,4.6
2017-11-11T08:54:39.895Z,4.6
2017-11-11T08:55:42.317Z,4.6
2017-11-11T08:56:44.741Z,4.6
2017-11-11T08:57:47.154Z,4.6
2017-11-11T08:58:49.576Z,4.6
2017-11-11T08:59:52.000Z,4.6
2017-11-11T09:00:54.409Z,4.6
2017-11-11T09:01:56.838Z,4.7
2017-11-11T09:02:59.293Z,4.7
2017-11-11T09:04:02.073Z,4.8
2017-11-11T09:05:04.892Z,4.8
2017-11-11T09:06:07.345Z,4.8
2017-11-11T09:07:09.810Z,4.8
2017-11-11T09:08:12.239Z,4.8
2017-11-11T09:09:14.692Z,4.8
2017-11-11T09:10:17.240Z,4.8
2017-11-11T09:11:19.698Z,4.8
2017-11-11T09:12:22.142Z,4.8
2017-11-11T09:13:24.563Z,4.8
2017-11-11T09:14:27.424Z,4.8
2017-11-11T09:15:30.748Z,4.8
2017-11-11T09:16:33.170Z,4.9
2017-11-11T09:17:42.590Z,4.9
2017-11-11T09:18:44.965Z,4.9
2017-11-11T09:19:47.685Z,4.9
2017-11-11T09:20:50.062Z,5
2017-11-11T09:21:52.437Z,5
2017-11-11T09:22:55.175Z,5
2017-11-11T09:23:57.536Z,5
2017-11-11T09:24:59.905Z,5
2017-11-11T09:26:02.266Z,5.1
2017-11-11T09:27:04.630Z,5.1
2017-11-11T09:28:07.009Z,5.1
2017-11-11T09:29:09.385Z,5.1
2017-11-11T09:30:12.464Z,5.1
2017-11-11T09:31:14.844Z,5.1
2017-11-11T09:32:17.214Z,5.1
2017-11-11T09:33:19.579Z,5.1
2017-11-11T09:34:21.952Z,5.1
2017-11-11T09:35:24.320Z,5.1
2017-11-11T09:36:27.745Z,5.2
2017-11-11T09:37:30.121Z,5.2
2017-11-11T09:38:32.503Z,5.1
2017-11-11T09:39:34.871Z,5.1
2017-11-11T09:40:37.246Z,5.1
2017-11-11T09:41:39.606Z,5.1
2017-11-11T09:42:41.983Z,5.1
2017-11-11T09:43:44.353Z,5.1
2017-11-11T09:44:46.721Z,5.2
2017-11-11T09:45:49.098Z,5.1
2017-11-11T09:46:51.828Z,5.1
2017-11-11T09:47:54.187Z,5.2
2017-11-11T09:48:56.560Z,5.2
2017-11-11T09:49:58.943Z,5.2
2017-11-11T09:51:01.325Z,5.1
2017-11-11T09:52:03.692Z,5.2
2017-11-11T09:53:06.077Z,5.2
2017-11-11T09:54:08.799Z,5.2
2017-11-11T09:55:11.158Z,5.1
2017-11-11T09:56:13.549Z,5.1
2017-11-11T09:57:15.934Z,5.1
2017-11-11T09:58:18.309Z,5.1
2017-11-11T09:59:20.685Z,5.1
2017-11-11T10:00:23.050Z,5.1
2017-11-11T10:01:25.423Z,5.1
2017-11-11T10:02:27.807Z,5.1
2017-11-11T10:03:30.170Z,5
2017-11-11T10:04:32.543Z,5
2017-11-11T10:05:34.906Z,5
2017-11-11T10:06:37.274Z,4.9
2017-11-11T10:07:39.663Z,4.9
2017-11-11T10:08:45.084Z,4.9
2017-11-11T10:09:47.544Z,4.9
2017-11-11T10:10:50.734Z,4.9
2017-11-11T10:11:54.048Z,4.9
2017-11-11T10:12:56.498Z,4.9
2017-11-11T10:13:58.930Z,5
2017-11-11T10:15:01.364Z,4.9
2017-11-11T10:16:03.793Z,4.9
2017-11-11T10:17:06.600Z,4.9
2017-11-11T10:18:09.433Z,4.8
2017-11-11T10:19:11.871Z,4.8
2017-11-11T10:20:14.303Z,4.8
2017-11-11T10:21:16.732Z,4.8
2017-11-11T10:22:19.173Z,4.7
2017-11-11T10:23:21.597Z,4.7
2017-11-11T10:24:24.402Z,4.7
2017-11-11T10:25:27.195Z,4.6
2017-11-11T10:26:29.965Z,4.6
2017-11-11T10:27:32.393Z,4.7
2017-11-11T10:28:35.189Z,4.7
2017-11-11T10:29:37.611Z,4.7
2017-11-11T10:30:40.116Z,4.6
2017-11-11T10:31:42.558Z,4.6
2017-11-11T10:32:45.007Z,4.6
2017-11-11T10:33:47.434Z,4.5
2017-11-11T10:34:49.860Z,4.6
2017-11-11T10:35:52.289Z,4.6
2017-11-11T10:36:55.107Z,4.6
2017-11-11T10:37:57.899Z,4.6
2017-11-11T10:39:00.327Z,4.6
2017-11-11T10:40:03.120Z,4.6
2017-11-11T10:41:05.543Z,4.6
2017-11-11T10:42:07.962Z,4.5
2017-11-11T10:43:10.408Z,4.5
2017-11-11T10:44:13.202Z,4.5
2017-11-11T10:45:15.639Z,4.6
2017-11-11T10:46:18.087Z,4.6
2017-11-11T10:47:20.514Z,4.6
2017-11-11T10:48:22.964Z,4.6
2017-11-11T10:49:25.407Z,4.6
2017-11-11T10:50:27.816Z,4.7
2017-11-11T10:51:30.627Z,4.7
2017-11-11T10:52:33.081Z,4.7
2017-11-11T10:53:35.856Z,4.8
2017-11-11T10:54:38.273Z,4.8
2017-11-11T10:55:40.694Z,4.8
2017-11-11T10:56:43.488Z,4.9
2017-11-11T10:57:45.888Z,4.9
2017-11-11T10:58:48.682Z,4.9
2017-11-11T10:59:51.092Z,5
2017-11-11T11:00:53.898Z,5.1
2017-11-11T11:01:56.338Z,5.1
2017-11-11T11:02:58.758Z,5.2
2017-11-11T11:04:01.195Z,5.1
2017-11-11T11:05:03.617Z,5.2
2017-11-11T11:06:06.032Z,5.2
2017-11-11T11:07:08.817Z,5.2
2017-11-11T11:08:11.248Z,5.2
2017-11-11T11:09:14.048Z,5.2
2017-11-11T11:10:16.513Z,5.2
2017-11-11T11:11:18.938Z,5.2
2017-11-11T11:12:21.363Z,5.2
2017-11-11T11:13:23.798Z,5.2
2017-11-11T11:14:26.199Z,5.2
2017-11-11T11:15:28.625Z,5.2
2017-11-11T11:16:31.062Z,5.2
2017-11-11T11:17:33.485Z,5.2
2017-11-11T11:18:35.920Z,5.2
2017-11-11T11:19:39.406Z,5.2
2017-11-11T11:20:42.200Z,5.2
2017-11-11T11:21:44.977Z,5.2
2017-11-11T11:22:47.393Z,5.2
2017-11-11T11:23:49.827Z,5.2
2017-11-11T11:24:52.253Z,5.1
2017-11-11T11:25:54.787Z,5.2
2017-11-11T11:26:57.223Z,5.2
2017-11-11T11:27:59.649Z,5.2
2017-11-11T11:29:02.080Z,5.2
2017-11-11T11:30:04.502Z,5.2
2017-11-11T11:31:06.919Z,5.2
2017-11-11T11:32:09.710Z,5.2
2017-11-11T11:33:12.144Z,5.2
2017-11-11T11:34:14.562Z,5.3
2017-11-11T11:35:16.981Z,5.3
2017-11-11T11:36:19.407Z,5.2
2017-11-11T11:37:21.836Z,5.2
2017-11-11T11:38:24.268Z,5.3
2017-11-11T11:39:26.685Z,5.2
2017-11-11T11:40:29.099Z,5.2
2017-11-11T11:41:31.533Z,5.3
2017-11-11T11:42:33.964Z,5.3
2017-11-11T11:43:36.411Z,5.3
2017-11-11T11:44:38.834Z,5.3
2017-11-11T11:45:41.255Z,5.3
2017-11-11T11:46:43.678Z,5.4
2017-11-11T11:47:46.129Z,5.4
2017-11-11T11:48:48.547Z,5.4
2017-11-11T11:49:50.955Z,5.4
2017-11-11T11:50:53.372Z,5.5
2017-11-11T11:51:55.796Z,5.5
2017-11-11T11:52:58.220Z,5.5
2017-11-11T11:54:00.645Z,5.5
2017-11-11T11:55:03.072Z,5.6
2017-11-11T11:56:06.249Z,5.6
2017-11-11T11:57:08.671Z,5.6
2017-11-11T11:58:11.108Z,5.7
2017-11-11T11:59:13.526Z,5.7
2017-11-11T12:00:15.948Z,5.8
2017-11-11T12:01:18.382Z,5.8
2017-11-11T12:02:21.166Z,5.8
2017-11-11T12:03:23.598Z,5.8
2017-11-11T12:04:27.106Z,5.8
2017-11-11T12:05:29.879Z,5.7
2017-11-11T12:06:32.312Z,5.8
2017-11-11T12:07:35.103Z,5.8
2017-11-11T12:08:37.532Z,5.8
2017-11-11T12:09:39.959Z,5.8
2017-11-11T12:10:42.377Z,5.8
2017-11-11T12:11:44.799Z,5.9
2017-11-11T12:12:47.245Z,5.9
2017-11-11T12:13:49.650Z,6
2017-11-11T12:14:52.082Z,6
2017-11-11T12:15:54.513Z,6
2017-11-11T12:16:57.294Z,6.1
2017-11-11T12:17:59.722Z,6.1
2017-11-11T12:19:02.144Z,6.1
2017-11-11T12:20:04.561Z,6.1
2017-11-11T12:21:06.995Z,6.1
2017-11-11T12:22:09.419Z,6.2
2017-11-11T12:23:11.843Z,6.2
2017-11-11T12:24:14.314Z,6.2
2017-11-11T12:25:17.143Z,6.2
2017-11-11T12:26:19.579Z,6.3
2017-11-11T12:27:22.045Z,6.3
2017-11-11T12:28:24.504Z,6.5
2017-11-11T12:29:26.959Z,6.5
2017-11-11T12:30:29.777Z,6.5
2017-11-11T12:31:32.209Z,6.5
2017-11-11T12:32:34.632Z,6.5
2017-11-11T12:33:37.430Z,6.5
2017-11-11T12:34:39.886Z,6.5
2017-11-11T12:35:42.319Z,6.6
2017-11-11T12:36:44.773Z,6.4
2017-11-11T12:37:47.222Z,6.4
2017-11-11T12:38:49.668Z,6.4
2017-11-11T12:39:52.136Z,6.4
2017-11-11T12:40:54.575Z,6.3
2017-11-11T12:41:57.009Z,6.3
2017-11-11T12:42:59.448Z,6.4
2017-11-11T12:44:01.918Z,6.4
2017-11-11T12:45:04.394Z,6.4
2017-11-11T12:46:06.906Z,6.4
2017-11-11T12:47:09.390Z,6.4
2017-11-11T12:48:11.841Z,6.4
2017-11-11T12:49:14.702Z,6.5
2017-11-11T12:50:17.214Z,6.5
2017-11-11T12:51:20.017Z,6.5
2017-11-11T12:52:52.489Z,6.4
2017-11-11T12:53:54.861Z,6.4
2017-11-11T12:54:57.228Z,6.4
2017-11-11T12:55:59.611Z,6.4
2017-11-11T12:57:01.980Z,6.4
2017-11-11T12:58:04.430Z,6.4
2017-11-11T12:59:06.862Z,6.4
2017-11-11T13:00:09.591Z,6.5
2017-11-11T13:01:11.953Z,6.5
2017-11-11T13:02:14.325Z,6.5
2017-11-11T13:03:17.051Z,6.4
2017-11-11T13:04:19.424Z,6.4
2017-11-11T13:05:21.806Z,6.3
2017-11-11T13:06:24.159Z,6.3
2017-11-11T13:07:26.531Z,6.3
2017-11-11T13:08:28.911Z,6.3
2017-11-11T13:09:31.293Z,6.2
2017-11-11T13:10:33.669Z,6.2
2017-11-11T13:11:36.313Z,6.2
2017-11-11T13:12:39.403Z,6.2
2017-11-11T13:13:41.784Z,6.2
2017-11-11T13:14:44.505Z,6.2
2017-11-11T13:15:55.958Z,6.2
2017-11-11T13:17:00.039Z,6.2
2017-11-11T13:18:03.497Z,6.2
2017-11-11T13:19:14.614Z,6.2
2017-11-11T13:20:18.634Z,6.1
2017-11-11T13:21:20.999Z,6.1
2017-11-11T13:22:23.723Z,6.1
2017-11-11T13:23:26.105Z,6.1
2017-11-11T13:24:28.470Z,6.1
2017-11-11T13:25:30.854Z,6.1
2017-11-11T13:26:33.227Z,6
2017-11-11T13:27:35.605Z,6.1
2017-11-11T13:28:37.979Z,6.1
2017-11-11T13:29:41.053Z,6.1
2017-11-11T13:30:43.424Z,5.9
2017-11-11T13:31:45.900Z,5.9
2017-11-11T13:32:48.603Z,5.9
2017-11-11T13:33:51.000Z,5.8
2017-11-11T13:34:53.381Z,5.8
2017-11-11T13:35:55.761Z,5.7
2017-11-11T13:36:58.137Z,5.6
2017-11-11T13:38:00.509Z,5.5
2017-11-11T13:39:02.869Z,5.4
2017-11-11T13:40:05.263Z,5.3
2017-11-11T13:41:07.631Z,5.3
2017-11-11T13:42:10.011Z,5.2
2017-11-11T13:43:12.392Z,5.1
2017-11-11T13:44:14.755Z,5
2017-11-11T13:45:17.481Z,5
2017-11-11T13:46:19.863Z,5
2017-11-11T13:47:22.271Z,4.9
2017-11-11T13:48:24.640Z,4.8
2017-11-11T13:49:27.021Z,4.8
2017-11-11T13:50:29.425Z,4.8
2017-11-11T13:51:31.852Z,4.8
2017-11-11T13:52:34.302Z,4.7
2017-11-11T13:53:37.082Z,4.8
2017-11-11T13:54:39.511Z,4.7
2017-11-11T13:55:41.932Z,4.8
2017-11-11T13:56:44.384Z,4.7
2017-11-11T13:57:46.818Z,4.7
2017-11-11T13:58:49.284Z,4.8
2017-11-11T13:59:52.053Z,4.7
2017-11-11T14:00:54.546Z,4.6
2017-11-11T14:01:57.254Z,4.6
2017-11-11T14:02:59.667Z,4.7
2017-11-11T14:04:02.088Z,4.6
2017-11-11T14:05:05.253Z,4.7
2017-11-11T14:06:07.741Z,4.7
2017-11-11T14:07:10.182Z,4.8
2017-11-11T14:08:13.076Z,4.7
2017-11-11T14:09:15.503Z,4.7
2017-11-11T14:10:18.082Z,4.6
2017-11-11T14:11:20.518Z,4.5
2017-11-11T14:12:22.954Z,4.6
2017-11-11T14:13:25.464Z,4.6
2017-11-11T14:14:27.890Z,4.5
2017-11-11T14:15:30.327Z,4.4
2017-11-11T14:16:32.767Z,4.5
2017-11-11T14:17:35.202Z,4.5
2017-11-11T14:18:37.629Z,4.5
2017-11-11T14:19:40.251Z,4.4
2017-11-11T14:20:43.040Z,4.5
2017-11-11T14:21:45.630Z,4.5
2017-11-11T14:22:48.067Z,4.6
2017-11-11T14:23:50.498Z,4.5
2017-11-11T14:24:52.916Z,4.5
2017-11-11T14:25:55.732Z,4.5
2017-11-11T14:26:58.168Z,4.5
2017-11-11T14:28:01.404Z,4.5
2017-11-11T14:29:03.843Z,4.5
2017-11-11T14:30:06.258Z,4.4